Terminal Aerodrome Forecast
Issued by NWS

Home | Current Version | Previous Version | Text Only | Print | Product List | Glossary On
Versions: 1 2 3 4 5 6 7 8 9 10 11 12 13 14 15 16 17 18 19 20
000
FTAK31 PAJN 280300 AAA
TAFAJN
TAF AMD
PAJN 280344Z 2804/2824 11012G22KT 6SM -RA BR FEW004 BKN030 OVC070
      WS020/13025KT
     FM280600 09012KT P6SM -RA BKN025 OVC040
     FM281800 11012G18KT P6SM -RA BKN035 OVC060=

USA.gov is the U.S. government's official web portal to all federal, state and local government web resources and services.